Time;durP1;ratioP1;P1;durP2;ratioP2;P2;SDS_P1;SDS_P2;PMS_P1;PMS_P2;Temp;Humidity;BMP_temperature;BMP_pressure;BME280_temperature;BME280_humidity;BME280_pressure;Samples;Min_cycle;Max_cycle;Signal;HPM_P1;HPM_P2
2023/04/04 00:02:09;;;;;;;;;;;;;;;9.37;100.00;98867.66;5050964;28;803;-59
2023/04/04 00:04:36;;;;;;;;;;;;;;;9.40;100.00;98853.03;5049595;28;1445;-59
2023/04/04 00:07:03;;;;;;;;;;;;;;;9.41;100.00;98854.59;5050954;28;1975;-59
2023/04/04 00:09:29;;;;;;;;;;;;;;;9.39;100.00;98841.22;5053353;28;1048;-59
2023/04/04 00:11:56;;;;;;;;;;;;;;;9.41;100.00;98829.78;5054524;28;834;-59
2023/04/04 00:14:23;;;;;;;;;;;;;;;9.30;100.00;98820.88;5054516;28;822;-59
2023/04/04 00:16:49;;;;;;;;;;;;;;;9.22;100.00;98813.91;5053121;28;1250;-58
2023/04/04 00:19:17;;;;;;;;;;;;;;;9.22;100.00;98809.19;5054633;28;811;-59
2023/04/04 00:21:44;;;;;;;;;;;;;;;9.20;100.00;98790.28;5054333;28;591;-58
2023/04/04 00:24:11;;;;;;;;;;;;;;;9.12;100.00;98783.34;5054011;28;1213;-58
2023/04/04 00:26:37;;;;;;;;;;;;;;;9.05;100.00;98774.41;5054371;28;1977;-59
2023/04/04 00:29:06;;;;;;;;;;;;;;;8.99;100.00;98763.06;5054397;28;842;-58
2023/04/04 00:31:33;;;;;;;;;;;;;;;8.97;100.00;98757.19;5054187;28;806;-59
2023/04/04 00:34:00;;;;;;;;;;;;;;;8.96;100.00;98772.16;5052808;28;1432;-58
2023/04/04 00:36:26;;;;;;;;;;;;;;;9.00;100.00;98756.34;5054130;28;790;-59
2023/04/04 00:38:53;;;;;;;;;;;;;;;9.03;100.00;98768.53;5053985;28;814;-58
2023/04/04 00:41:20;;;;;;;;;;;;;;;9.06;100.00;98770.44;5054299;28;818;-59
2023/04/04 00:43:46;;;;;;;;;;;;;;;9.05;100.00;98760.63;5053923;28;806;-58
2023/04/04 00:46:16;;;;;;;;;;;;;;;9.08;100.00;98765.28;5054016;28;1953;-58
2023/04/04 00:48:43;;;;;;;;;;;;;;;9.11;100.00;98753.41;5052495;28;1278;-58
2023/04/04 00:51:09;;;;;;;;;;;;;;;9.17;100.00;98757.25;5054018;28;826;-59
2023/04/04 00:53:37;;;;;;;;;;;;;;;9.27;100.00;98756.31;5053734;28;877;-58
2023/04/04 00:56:03;;;;;;;;;;;;;;;9.34;100.00;98755.41;5053594;28;832;-58
2023/04/04 00:58:30;;;;;;;;;;;;;;;9.39;100.00;98752.97;5053685;28;795;-58
2023/04/04 01:00:58;;;;;;;;;;;;;;;9.45;100.00;98722.91;5053540;28;892;-58
2023/04/04 01:03:25;;;;;;;;;;;;;;;9.47;100.00;98720.50;5053595;28;953;-58
2023/04/04 01:05:53;;;;;;;;;;;;;;;9.50;100.00;98719.69;5053532;28;1890;-59
2023/04/04 01:08:23;;;;;;;;;;;;;;;9.50;100.00;98707.88;5053435;28;867;-58
2023/04/04 01:23:00;;;;;;;;;;;;;;;9.40;100.00;98666.25;5053523;28;652;-58
2023/04/04 01:37:41;;;;;;;;;;;;;;;9.35;100.00;98660.47;5053467;28;664;-58
2023/04/04 01:40:13;;;;;;;;;;;;;;;9.34;100.00;98664.41;5052866;28;829;-58
2023/04/04 01:45:43;;;;;;;;;;;;;;;9.30;100.00;98634.16;5052979;28;1905;-58
2023/04/04 01:48:10;;;;;;;;;;;;;;;9.30;100.00;98633.38;5052869;28;807;-58
2023/04/04 02:02:49;;;;;;;;;;;;;;;9.28;100.00;98613.72;5052792;28;620;-59
2023/04/04 02:05:16;;;;;;;;;;;;;;;9.28;100.00;98595.22;5052432;28;818;-58
2023/04/04 02:07:48;;;;;;;;;;;;;;;9.29;100.00;98602.25;5050995;28;1961;-59
2023/04/04 02:10:15;;;;;;;;;;;;;;;9.21;100.00;98614.63;5052704;28;938;-59
2023/04/04 02:12:42;;;;;;;;;;;;;;;9.16;100.00;98613.13;5050963;28;1290;-59
2023/04/04 02:27:32;;;;;;;;;;;;;;;9.37;100.00;98600.94;5044802;28;1882;-59
2023/04/04 02:30:03;;;;;;;;;;;;;;;9.44;100.00;98605.53;5050426;28;1413;-60
2023/04/04 02:32:32;;;;;;;;;;;;;;;9.52;100.00;98600.66;5052100;28;853;-59
2023/04/04 02:34:58;;;;;;;;;;;;;;;9.56;100.00;98607.66;5051833;28;834;-58
2023/04/04 02:37:29;;;;;;;;;;;;;;;9.65;100.00;98609.06;5051758;28;862;-59
2023/04/04 02:52:07;;;;;;;;;;;;;;;9.97;100.00;98656.09;5051857;28;637;-59
2023/04/04 02:54:35;;;;;;;;;;;;;;;9.89;100.00;98653.91;5051606;28;835;-59
2023/04/04 02:57:03;;;;;;;;;;;;;;;9.81;100.00;98651.31;5051515;28;897;-59
2023/04/04 02:59:30;;;;;;;;;;;;;;;9.77;100.00;98671.88;5050269;28;1373;-59
2023/04/04 03:01:56;;;;;;;;;;;;;;;9.75;100.00;98683.34;5051536;28;815;-59
2023/04/04 03:04:52;;;;;;;;;;;;;;;9.77;100.00;98678.19;5051418;28;811;-59
2023/04/04 03:07:18;;;;;;;;;;;;;;;9.78;100.00;98684.47;5047365;28;1953;-60
2023/04/04 03:12:47;;;;;;;;;;;;;;;9.76;100.00;98686.88;5051308;28;1126;-60
2023/04/04 03:15:14;;;;;;;;;;;;;;;9.77;100.00;98691.19;5051416;28;916;-60
2023/04/04 03:17:41;;;;;;;;;;;;;;;9.76;100.00;98687.66;5051327;28;822;-60
2023/04/04 03:20:10;;;;;;;;;;;;;;;9.76;100.00;98697.94;5051316;28;815;-59
2023/04/04 03:22:37;;;;;;;;;;;;;;;9.77;100.00;98694.75;5051186;28;869;-60
2023/04/04 03:25:04;;;;;;;;;;;;;;;9.79;100.00;98697.88;5051287;28;818;-60
2023/04/04 03:27:32;;;;;;;;;;;;;;;9.82;100.00;98704.50;5050962;28;1955;-60
2023/04/04 03:29:58;;;;;;;;;;;;;;;9.83;100.00;98708.81;5050336;28;1235;-59
2023/04/04 03:32:26;;;;;;;;;;;;;;;9.84;100.00;98698.56;5050456;28;1326;-59
2023/04/04 03:34:53;;;;;;;;;;;;;;;9.81;100.00;98700.97;5051526;28;783;-59
2023/04/04 03:37:21;;;;;;;;;;;;;;;9.84;100.00;98696.59;5051917;28;862;-59
2023/04/04 03:39:48;;;;;;;;;;;;;;;9.84;100.00;98706.84;5050023;28;1491;-59
2023/04/04 03:42:15;;;;;;;;;;;;;;;9.82;100.00;98707.28;5051962;28;861;-60
2023/04/04 03:44:43;;;;;;;;;;;;;;;9.79;100.00;98708.91;5055357;28;830;-59
2023/04/04 03:47:10;;;;;;;;;;;;;;;9.80;100.00;98709.69;5055146;28;1945;-59
2023/04/04 03:49:37;;;;;;;;;;;;;;;9.79;100.00;98705.34;5053776;28;1258;-59
2023/04/04 03:52:05;;;;;;;;;;;;;;;9.79;100.00;98691.53;5054957;28;870;-59
2023/04/04 03:54:33;;;;;;;;;;;;;;;9.76;100.00;98697.94;5054888;28;802;-59
2023/04/04 03:57:02;;;;;;;;;;;;;;;9.58;100.00;98692.72;5053518;28;1231;-59
2023/04/04 03:59:28;;;;;;;;;;;;;;;9.43;100.00;98691.44;5053485;28;1306;-59
2023/04/04 04:01:55;;;;;;;;;;;;;;;9.36;100.00;98700.63;5054753;28;877;-59
2023/04/04 04:04:22;;;;;;;;;;;;;;;9.33;100.00;98704.22;5054699;28;853;-59
2023/04/04 04:06:49;;;;;;;;;;;;;;;9.28;100.00;98721.25;5054821;28;1910;-59
2023/04/04 04:09:15;;;;;;;;;;;;;;;9.18;100.00;98720.25;5054914;28;900;-59
2023/04/04 04:11:41;;;;;;;;;;;;;;;9.06;100.00;98710.56;5054537;28;822;-59
2023/04/04 04:14:08;;;;;;;;;;;;;;;9.01;100.00;98713.81;5054565;28;802;-59
2023/04/04 04:16:38;;;;;;;;;;;;;;;8.99;100.00;98714.22;5054492;28;806;-59
2023/04/04 04:19:05;;;;;;;;;;;;;;;8.94;100.00;98708.41;5054439;28;878;-59
2023/04/04 04:21:31;;;;;;;;;;;;;;;8.91;100.00;98701.75;5054562;28;874;-59
2023/04/04 04:23:57;;;;;;;;;;;;;;;8.93;100.00;98698.59;5054619;28;795;-59
2023/04/04 04:26:25;;;;;;;;;;;;;;;8.92;100.00;98697.03;5052696;28;1959;-59
2023/04/04 04:28:51;;;;;;;;;;;;;;;8.90;100.00;98682.91;5054289;28;878;-60
2023/04/04 04:31:17;;;;;;;;;;;;;;;8.90;100.00;98680.16;5054202;28;1037;-60
2023/04/04 04:33:44;;;;;;;;;;;;;;;8.83;100.00;98666.47;5054131;28;850;-60
2023/04/04 04:36:11;;;;;;;;;;;;;;;8.56;100.00;98637.00;5054509;28;842;-60
2023/04/04 04:38:37;;;;;;;;;;;;;;;8.75;100.00;98655.56;5054139;28;826;-59
2023/04/04 04:41:04;;;;;;;;;;;;;;;8.74;100.00;98642.97;5054193;28;949;-60
2023/04/04 04:43:31;;;;;;;;;;;;;;;8.72;100.00;98637.09;5054077;28;811;-60
2023/04/04 04:45:58;;;;;;;;;;;;;;;8.68;100.00;98633.63;5054347;28;1971;-60
2023/04/04 04:48:24;;;;;;;;;;;;;;;8.72;100.00;98625.31;5054379;28;842;-60
2023/04/04 04:50:51;;;;;;;;;;;;;;;8.74;100.00;98611.91;5054348;28;793;-60
2023/04/04 04:53:17;;;;;;;;;;;;;;;8.78;100.00;98618.91;5054165;28;812;-60
2023/04/04 04:55:45;;;;;;;;;;;;;;;8.87;100.00;98617.59;5053916;28;838;-60
2023/04/04 04:58:12;;;;;;;;;;;;;;;8.90;100.00;98605.75;5054044;28;834;-60
2023/04/04 05:00:39;;;;;;;;;;;;;;;8.87;100.00;98599.06;5053844;28;864;-60
2023/04/04 05:03:06;;;;;;;;;;;;;;;8.85;100.00;98603.44;5052603;28;1596;-60
2023/04/04 05:05:35;;;;;;;;;;;;;;;8.83;100.00;98600.34;5053673;28;1948;-61
2023/04/04 05:08:02;;;;;;;;;;;;;;;8.84;100.00;98612.94;5053509;28;975;-60
2023/04/04 05:10:29;;;;;;;;;;;;;;;8.86;100.00;98611.31;5053658;28;807;-60
2023/04/04 05:12:56;;;;;;;;;;;;;;;8.88;100.00;98627.44;5053436;28;873;-60
2023/04/04 05:15:24;;;;;;;;;;;;;;;8.95;100.00;98630.06;5053458;28;806;-60
2023/04/04 05:17:51;;;;;;;;;;;;;;;8.93;100.00;98630.47;5053412;28;810;-60
2023/04/04 05:20:18;;;;;;;;;;;;;;;8.95;100.00;98630.06;5053140;28;856;-60
2023/04/04 05:22:44;;;;;;;;;;;;;;;8.96;100.00;98628.84;5053321;28;838;-60
2023/04/04 05:25:11;;;;;;;;;;;;;;;8.96;100.00;98632.41;5053349;28;819;-60
2023/04/04 05:27:47;;;;;;;;;;;;;;;8.99;100.00;98636.28;5052885;28;1893;-60
2023/04/04 05:30:15;;;;;;;;;;;;;;;8.96;100.00;98639.88;5053085;28;852;-60
2023/04/04 05:32:45;;;;;;;;;;;;;;;8.96;100.00;98643.41;5053039;28;886;-60
2023/04/04 05:35:12;;;;;;;;;;;;;;;8.93;100.00;98643.47;5051759;28;1594;-60
2023/04/04 05:37:39;;;;;;;;;;;;;;;8.94;100.00;98634.00;5052866;28;798;-60
2023/04/04 05:40:08;;;;;;;;;;;;;;;8.94;100.00;98629.28;5052951;28;873;-59
2023/04/04 05:42:35;;;;;;;;;;;;;;;8.98;100.00;98629.19;5052843;28;842;-59
2023/04/04 05:45:02;;;;;;;;;;;;;;;9.00;100.00;98621.28;5052835;28;814;-60
2023/04/04 05:47:28;;;;;;;;;;;;;;;9.02;100.00;98620.88;5052681;28;1918;-60
2023/04/04 05:49:55;;;;;;;;;;;;;;;9.09;100.00;98624.31;5052586;28;873;-60
2023/04/04 05:52:22;;;;;;;;;;;;;;;9.16;100.00;98617.88;5052670;28;818;-59
2023/04/04 05:54:50;;;;;;;;;;;;;;;9.21;100.00;98620.13;5052604;28;944;-59
2023/04/04 05:57:17;;;;;;;;;;;;;;;9.22;100.00;98626.41;5052851;28;819;-59
2023/04/04 05:59:47;;;;;;;;;;;;;;;9.24;100.00;98627.56;5052551;28;814;-59
2023/04/04 06:02:14;;;;;;;;;;;;;;;9.28;100.00;98614.50;5051665;28;1418;-60
2023/04/04 06:04:43;;;;;;;;;;;;;;;9.34;100.00;98601.00;5051103;28;1207;-59
2023/04/04 06:07:10;;;;;;;;;;;;;;;9.37;100.00;98586.38;5052211;28;1945;-60
2023/04/04 06:09:37;;;;;;;;;;;;;;;9.29;100.00;98596.75;5052659;28;939;-60
2023/04/04 06:12:04;;;;;;;;;;;;;;;9.09;100.00;98596.75;5052828;28;791;-59
2023/04/04 06:14:30;;;;;;;;;;;;;;;9.02;100.00;98590.56;5052422;28;823;-60
2023/04/04 06:16:57;;;;;;;;;;;;;;;9.06;100.00;98583.78;5052510;28;842;-60
2023/04/04 06:19:24;;;;;;;;;;;;;;;9.05;100.00;98581.47;5052267;28;835;-60
2023/04/04 06:21:50;;;;;;;;;;;;;;;9.12;100.00;98556.53;5052834;28;771;-59
2023/04/04 06:24:16;;;;;;;;;;;;;;;9.19;100.00;98553.63;5052753;28;787;-59
2023/04/04 06:26:44;;;;;;;;;;;;;;;9.17;100.00;98543.03;5051588;28;1881;-59
2023/04/04 06:29:11;;;;;;;;;;;;;;;9.25;100.00;98553.91;5051986;28;842;-59
2023/04/04 06:31:36;;;;;;;;;;;;;;;9.23;100.00;98545.28;5052191;28;866;-59
2023/04/04 06:34:03;;;;;;;;;;;;;;;9.22;100.00;98549.22;5051864;28;889;-59
2023/04/04 06:36:30;;;;;;;;;;;;;;;9.24;100.00;98563.38;5051869;28;838;-59
2023/04/04 06:38:56;;;;;;;;;;;;;;;9.27;100.00;98559.78;5051846;28;834;-60
2023/04/04 06:41:23;;;;;;;;;;;;;;;9.50;100.00;98562.47;5051764;28;818;-59
2023/04/04 06:43:49;;;;;;;;;;;;;;;9.70;100.00;98559.69;5051812;28;814;-60
2023/04/04 06:46:17;;;;;;;;;;;;;;;10.05;100.00;98564.84;5051643;28;1901;-59
2023/04/04 06:48:43;;;;;;;;;;;;;;;10.35;100.00;98572.09;5051560;28;830;-60
2023/04/04 06:51:11;;;;;;;;;;;;;;;10.74;100.00;98557.28;5051703;28;830;-60
2023/04/04 06:53:38;;;;;;;;;;;;;;;11.17;100.00;98560.94;5051596;28;865;-59
2023/04/04 06:56:05;;;;;;;;;;;;;;;11.68;100.00;98560.31;5051595;28;818;-59
2023/04/04 06:58:31;;;;;;;;;;;;;;;11.65;100.00;98568.25;5051583;28;802;-59
2023/04/04 07:00:58;;;;;;;;;;;;;;;11.76;100.00;98570.72;5051795;28;881;-59
2023/04/04 07:03:26;;;;;;;;;;;;;;;11.69;100.00;98570.91;5051449;28;822;-60
2023/04/04 07:05:52;;;;;;;;;;;;;;;11.73;100.00;98570.81;5051457;28;1881;-59
2023/04/04 07:08:19;;;;;;;;;;;;;;;11.95;100.00;98566.22;5051443;28;1005;-59
2023/04/04 07:10:46;;;;;;;;;;;;;;;12.03;100.00;98558.47;5051413;28;869;-59
2023/04/04 07:13:13;;;;;;;;;;;;;;;11.78;100.00;98548.16;5051430;28;814;-59
2023/04/04 07:15:40;;;;;;;;;;;;;;;11.72;100.00;98552.66;5051631;28;897;-59
2023/04/04 07:18:07;;;;;;;;;;;;;;;11.84;100.00;98565.72;5053379;28;874;-60
2023/04/04 07:20:34;;;;;;;;;;;;;;;11.97;100.00;98557.47;5055521;28;803;-59
2023/04/04 07:23:01;;;;;;;;;;;;;;;12.68;100.00;98557.22;5055461;28;862;-59
2023/04/04 07:25:27;;;;;;;;;;;;;;;13.57;100.00;98547.78;5055396;28;870;-59
2023/04/04 07:27:54;;;;;;;;;;;;;;;14.26;100.00;98527.25;5055046;28;1914;-59
2023/04/04 07:30:25;;;;;;;;;;;;;;;14.17;100.00;98532.78;5055345;28;898;-59
2023/04/04 07:32:58;;;;;;;;;;;;;;;13.30;100.00;98525.41;5055316;28;851;-59
2023/04/04 07:35:25;;;;;;;;;;;;;;;12.83;100.00;98521.47;5055384;28;878;-60
2023/04/04 07:37:51;;;;;;;;;;;;;;;12.64;100.00;98521.28;5055164;28;894;-60
2023/04/04 07:40:18;;;;;;;;;;;;;;;12.83;100.00;98513.13;5055254;28;881;-60
2023/04/04 07:42:45;;;;;;;;;;;;;;;12.93;100.00;98520.31;5055345;28;799;-59
2023/04/04 07:45:12;;;;;;;;;;;;;;;12.90;100.00;98542.63;5055092;28;978;-60
2023/04/04 07:47:45;;;;;;;;;;;;;;;12.63;100.00;98563.31;5053609;28;1910;-59
2023/04/04 07:50:15;;;;;;;;;;;;;;;12.42;100.00;98582.19;5054967;28;854;-59
2023/04/04 07:52:41;;;;;;;;;;;;;;;12.32;100.00;98575.00;5054940;28;1005;-59
2023/04/04 07:55:08;;;;;;;;;;;;;;;12.36;100.00;98586.72;5054920;28;790;-59
2023/04/04 07:57:38;;;;;;;;;;;;;;;12.11;100.00;98595.81;5053516;28;1266;-60
2023/04/04 08:00:05;;;;;;;;;;;;;;;11.75;100.00;98588.53;5054800;28;815;-59
2023/04/04 08:02:33;;;;;;;;;;;;;;;11.86;100.00;98590.97;5054742;28;908;-59
2023/04/04 08:05:00;;;;;;;;;;;;;;;11.84;100.00;98585.09;5054657;28;871;-60
2023/04/04 08:07:26;;;;;;;;;;;;;;;11.80;100.00;98576.94;5054601;28;1939;-60
2023/04/04 08:09:53;;;;;;;;;;;;;;;11.84;100.00;98576.81;5054990;28;1026;-60
2023/04/04 08:12:20;;;;;;;;;;;;;;;12.01;100.00;98585.81;5054514;28;893;-59
2023/04/04 08:14:47;;;;;;;;;;;;;;;12.11;100.00;98576.41;5053291;28;1203;-59
2023/04/04 08:17:17;;;;;;;;;;;;;;;12.37;100.00;98573.66;5054347;28;811;-59
2023/04/04 08:19:44;;;;;;;;;;;;;;;12.50;100.00;98566.09;5054369;28;846;-59
2023/04/04 08:22:11;;;;;;;;;;;;;;;12.63;100.00;98580.72;5054399;28;929;-59
2023/04/04 08:24:38;;;;;;;;;;;;;;;12.48;100.00;98595.47;5054378;28;803;-60
2023/04/04 08:27:05;;;;;;;;;;;;;;;12.12;100.00;98596.56;5053921;28;1859;-59
2023/04/04 08:29:33;;;;;;;;;;;;;;;11.63;100.00;98590.06;5053762;28;842;-59
2023/04/04 08:32:00;;;;;;;;;;;;;;;11.52;100.00;98597.91;5054400;28;807;-59
2023/04/04 08:34:27;;;;;;;;;;;;;;;11.35;100.00;98596.38;5054135;28;794;-59
2023/04/04 08:36:54;;;;;;;;;;;;;;;11.48;100.00;98594.47;5054189;28;822;-60
2023/04/04 08:39:21;;;;;;;;;;;;;;;11.71;100.00;98596.16;5054054;28;822;-59
2023/04/04 08:41:54;;;;;;;;;;;;;;;11.97;100.00;98599.81;5054040;28;866;-59
2023/04/04 08:44:21;;;;;;;;;;;;;;;12.23;100.00;98610.91;5054011;28;799;-60
2023/04/04 08:46:48;;;;;;;;;;;;;;;12.04;100.00;98612.66;5053789;28;1914;-60
2023/04/04 08:49:15;;;;;;;;;;;;;;;11.61;100.00;98619.41;5053896;28;875;-59
2023/04/04 08:51:42;;;;;;;;;;;;;;;11.23;100.00;98618.03;5053888;28;775;-59
2023/04/04 08:54:09;;;;;;;;;;;;;;;11.12;100.00;98606.47;5053857;28;854;-60
2023/04/04 08:56:36;;;;;;;;;;;;;;;11.33;100.00;98596.03;5053664;28;795;-60
2023/04/04 08:59:02;;;;;;;;;;;;;;;11.76;100.00;98586.56;5053746;28;909;-60
2023/04/04 09:01:29;;;;;;;;;;;;;;;12.23;100.00;98583.97;5053664;28;842;-59
2023/04/04 09:03:57;;;;;;;;;;;;;;;12.23;100.00;98600.59;5053889;28;860;-59
2023/04/04 09:06:25;;;;;;;;;;;;;;;11.87;100.00;98609.16;5053567;28;1954;-60
2023/04/04 09:08:52;;;;;;;;;;;;;;;11.63;100.00;98598.38;5053658;28;966;-59
2023/04/04 09:11:20;;;;;;;;;;;;;;;11.56;100.00;98603.31;5053483;28;819;-59
2023/04/04 09:13:48;;;;;;;;;;;;;;;11.52;100.00;98614.50;5053429;28;803;-60
2023/04/04 09:16:15;;;;;;;;;;;;;;;11.25;100.00;98617.59;5053554;28;842;-59
2023/04/04 09:18:42;;;;;;;;;;;;;;;11.03;100.00;98628.44;5053332;28;838;-59
2023/04/04 09:21:10;;;;;;;;;;;;;;;10.71;100.00;98626.47;5053286;28;863;-59
2023/04/04 09:23:37;;;;;;;;;;;;;;;10.66;100.00;98618.69;5053275;28;853;-60
2023/04/04 09:26:07;;;;;;;;;;;;;;;10.73;100.00;98618.53;5052790;28;1878;-59
2023/04/04 09:28:34;;;;;;;;;;;;;;;10.82;100.00;98622.25;5053181;28;834;-59
2023/04/04 09:31:01;;;;;;;;;;;;;;;10.81;100.00;98620.66;5053099;28;1039;-60
2023/04/04 09:33:30;;;;;;;;;;;;;;;10.90;100.00;98611.75;5053112;28;838;-59
2023/04/04 09:35:57;;;;;;;;;;;;;;;11.01;100.00;98611.53;5053006;28;936;-59
2023/04/04 09:38:25;;;;;;;;;;;;;;;11.11;100.00;98599.38;5053124;28;834;-60
2023/04/04 10:09:17;;;;;;;;;;;;;;;14.70;100.00;98573.56;5774471;22;1671;-60
2023/04/04 10:11:44;;;;;;;;;;;;;;;14.93;100.00;98563.88;5052360;28;810;-57
2023/04/04 10:14:10;;;;;;;;;;;;;;;15.58;100.00;98566.66;5052345;28;814;-59
2023/04/04 10:16:43;;;;;;;;;;;;;;;15.73;100.00;98561.22;5052217;28;825;-58
2023/04/04 10:19:11;;;;;;;;;;;;;;;16.33;100.00;98555.59;5052350;28;806;-58
2023/04/04 10:21:38;;;;;;;;;;;;;;;16.71;100.00;98561.75;5052143;28;833;-58
2023/04/04 10:24:08;;;;;;;;;;;;;;;16.18;100.00;98554.72;5052121;28;845;-58
2023/04/04 10:26:35;;;;;;;;;;;;;;;15.35;100.00;98552.13;5052035;28;1989;-58
2023/04/04 10:29:04;;;;;;;;;;;;;;;14.58;100.00;98550.22;5051961;28;1100;-58
2023/04/04 10:31:32;;;;;;;;;;;;;;;14.49;100.00;98553.72;5051974;28;826;-58
2023/04/04 10:34:12;;;;;;;;;;;;;;;14.62;100.00;98545.28;5051989;28;833;-58
2023/04/04 10:36:59;;;;;;;;;;;;;;;14.65;100.00;98529.69;5052040;28;826;-59
2023/04/04 10:39:31;;;;;;;;;;;;;;;15.00;100.00;98527.41;5051862;28;1581;-58
2023/04/04 10:41:58;;;;;;;;;;;;;;;15.30;100.00;98530.50;5051896;28;794;-58
2023/04/04 10:44:32;;;;;;;;;;;;;;;15.39;100.00;98524.13;5051851;28;846;-59
2023/04/04 10:47:05;;;;;;;;;;;;;;;14.73;100.00;98542.06;5051683;28;1902;-58
2023/04/04 10:49:33;;;;;;;;;;;;;;;14.31;100.00;98537.00;5051714;28;834;-59
2023/04/04 10:51:59;;;;;;;;;;;;;;;13.87;100.00;98528.81;5051555;28;846;-58
2023/04/04 10:54:26;;;;;;;;;;;;;;;13.68;100.00;98539.06;5050338;28;1274;-61
2023/04/04 10:56:55;;;;;;;;;;;;;;;13.80;100.00;98531.84;5051633;28;822;-58
2023/04/04 10:59:24;;;;;;;;;;;;;;;13.90;100.00;98544.56;5052252;28;767;-58
2023/04/04 11:01:59;;;;;;;;;;;;;;;14.04;100.00;98555.13;5051784;28;861;-58
2023/04/04 11:04:46;;;;;;;;;;;;;;;13.80;100.00;98554.81;5051557;28;802;-59
2023/04/04 11:07:15;;;;;;;;;;;;;;;13.81;100.00;98558.41;5050164;28;1886;-58
2023/04/04 11:10:00;;;;;;;;;;;;;;;14.00;100.00;98548.94;5051321;28;1233;-58
2023/04/04 11:12:30;;;;;;;;;;;;;;;14.51;100.00;98569.97;5051494;28;853;-58
2023/04/04 11:14:56;;;;;;;;;;;;;;;14.83;100.00;98573.44;5051645;28;814;-58
2023/04/04 11:17:43;;;;;;;;;;;;;;;15.30;100.00;98567.44;5051413;28;841;-59
2023/04/04 11:20:13;;;;;;;;;;;;;;;15.23;100.00;98576.09;5051456;28;861;-58
2023/04/04 11:22:41;;;;;;;;;;;;;;;14.88;100.00;98565.25;5051365;28;853;-58
2023/04/04 11:25:26;;;;;;;;;;;;;;;14.67;100.00;98564.13;5051322;28;850;-58
2023/04/04 11:27:59;;;;;;;;;;;;;;;14.42;100.00;98567.13;5051394;28;1973;-58
2023/04/04 11:30:27;;;;;;;;;;;;;;;14.79;100.00;98578.41;5051318;28;830;-58
2023/04/04 11:32:57;;;;;;;;;;;;;;;14.89;100.00;98577.94;5051204;28;822;-58
2023/04/04 11:35:24;;;;;;;;;;;;;;;15.34;100.00;98572.06;5051275;28;787;-58
2023/04/04 11:37:52;;;;;;;;;;;;;;;15.94;100.00;98571.38;5051128;28;830;-58
2023/04/04 11:40:19;;;;;;;;;;;;;;;16.18;100.00;98576.25;5051770;28;778;-58
2023/04/04 11:42:51;;;;;;;;;;;;;;;16.04;100.00;98569.34;5050232;28;810;-58
2023/04/04 11:45:19;;;;;;;;;;;;;;;14.89;100.00;98572.38;5051377;28;810;-58
2023/04/04 11:47:49;;;;;;;;;;;;;;;14.37;100.00;98562.94;5051084;28;1886;-58
2023/04/04 11:50:15;;;;;;;;;;;;;;;14.28;100.00;98562.94;5051112;28;807;-58
2023/04/04 11:52:42;;;;;;;;;;;;;;;13.89;100.00;98571.56;5051120;28;913;-58
2023/04/04 11:55:17;;;;;;;;;;;;;;;13.68;100.00;98575.91;5051037;28;876;-58
2023/04/04 11:57:46;;;;;;;;;;;;;;;13.43;100.00;98573.28;5051061;28;826;-60
2023/04/04 12:00:27;;;;;;;;;;;;;;;13.13;100.00;98572.72;5050990;28;807;-58
2023/04/04 12:02:54;;;;;;;;;;;;;;;12.91;100.00;98569.91;5051021;28;877;-58
2023/04/04 12:05:22;;;;;;;;;;;;;;;12.79;100.00;98565.94;5054858;28;868;-60
2023/04/04 12:07:50;;;;;;;;;;;;;;;12.91;100.00;98549.69;5054578;28;1893;-63
2023/04/04 12:10:18;;;;;;;;;;;;;;;12.92;100.00;98548.50;5053163;28;1327;-58
2023/04/04 12:12:45;;;;;;;;;;;;;;;12.88;100.00;98554.16;5054639;28;813;-60
2023/04/04 12:15:13;;;;;;;;;;;;;;;12.69;100.00;98547.66;5054578;28;861;-61
2023/04/04 12:17:41;;;;;;;;;;;;;;;12.58;100.00;98552.78;5054550;28;878;-61
2023/04/04 12:20:10;;;;;;;;;;;;;;;12.48;100.00;98554.69;5053288;28;1251;-60
2023/04/04 12:22:37;;;;;;;;;;;;;;;12.32;100.00;98554.81;5054450;28;865;-60
2023/04/04 12:25:05;;;;;;;;;;;;;;;12.35;100.00;98542.84;5054429;28;913;-60
2023/04/04 12:27:31;;;;;;;;;;;;;;;12.53;100.00;98543.03;5054430;28;1918;-60
2023/04/04 12:29:59;;;;;;;;;;;;;;;12.73;100.00;98542.75;5054359;28;829;-60
2023/04/04 12:32:26;;;;;;;;;;;;;;;13.02;100.00;98533.47;5054539;28;897;-60
2023/04/04 12:34:58;;;;;;;;;;;;;;;13.42;100.00;98530.09;5054223;28;889;-60
2023/04/04 12:37:27;;;;;;;;;;;;;;;13.88;100.00;98525.56;5054154;28;822;-60
2023/04/04 12:39:55;;;;;;;;;;;;;;;14.87;100.00;98537.88;5054119;28;905;-60
2023/04/04 12:42:22;;;;;;;;;;;;;;;15.58;100.00;98524.88;5054358;28;916;-61
2023/04/04 12:44:50;;;;;;;;;;;;;;;15.58;100.00;98519.31;5054010;28;846;-60
2023/04/04 12:47:19;;;;;;;;;;;;;;;15.56;100.00;98522.56;5053952;28;1886;-60
2023/04/04 12:49:49;;;;;;;;;;;;;;;15.32;100.00;98526.00;5053947;28;866;-58
2023/04/04 12:52:19;;;;;;;;;;;;;;;15.05;100.00;98526.00;5053885;28;869;-60
2023/04/04 12:54:46;;;;;;;;;;;;;;;14.89;100.00;98511.19;5053856;28;892;-58
2023/04/04 12:57:23;;;;;;;;;;;;;;;14.70;100.00;98515.97;5053801;28;794;-61
2023/04/04 12:59:52;;;;;;;;;;;;;;;14.59;100.00;98525.97;5053845;28;810;-58
2023/04/04 13:05:49;;;;;;;;;;;;;;;14.27;100.00;98511.34;5054066;28;613;-59
2023/04/04 13:08:16;;;;;;;;;;;;;;;14.26;100.00;98520.94;5053626;28;1064;-60
2023/04/04 13:11:02;;;;;;;;;;;;;;;14.57;100.00;98506.19;5053284;28;1199;-63
2023/04/04 13:13:39;;;;;;;;;;;;;;;14.31;100.00;98514.75;5053576;28;826;-59
2023/04/04 13:16:25;;;;;;;;;;;;;;;14.51;100.00;98517.13;5052186;28;869;-60
2023/04/04 13:18:51;;;;;;;;;;;;;;;14.79;100.00;98517.19;5045893;28;1100;-58
2023/04/04 13:21:19;;;;;;;;;;;;;;;14.93;100.00;98516.56;5053350;28;866;-60
2023/04/04 13:23:46;;;;;;;;;;;;;;;14.45;100.00;98510.63;5053353;28;854;-60
2023/04/04 13:26:13;;;;;;;;;;;;;;;14.28;100.00;98512.91;5053160;28;1906;-60
2023/04/04 13:28:39;;;;;;;;;;;;;;;14.12;100.00;98513.16;5053219;28;834;-60
2023/04/04 13:31:07;;;;;;;;;;;;;;;14.04;100.00;98521.78;5053180;28;828;-60
2023/04/04 13:33:34;;;;;;;;;;;;;;;14.08;100.00;98530.75;5051811;28;1298;-60
2023/04/04 13:36:01;;;;;;;;;;;;;;;14.01;100.00;98527.47;5052950;28;818;-61
2023/04/04 13:38:28;;;;;;;;;;;;;;;13.73;100.00;98519.00;5053322;28;928;-60
2023/04/04 13:40:56;;;;;;;;;;;;;;;13.57;100.00;98524.78;5053054;28;810;-60
2023/04/04 13:43:22;;;;;;;;;;;;;;;13.54;100.00;98517.38;5051654;28;807;-60
2023/04/04 13:45:51;;;;;;;;;;;;;;;13.33;100.00;98527.25;5052921;28;853;-60
2023/04/04 13:48:18;;;;;;;;;;;;;;;12.97;100.00;98528.50;5053037;28;846;-60
2023/04/04 13:50:49;;;;;;;;;;;;;;;12.69;100.00;98522.69;5052856;28;853;-60
2023/04/04 13:53:17;;;;;;;;;;;;;;;12.50;100.00;98526.53;5052754;28;886;-59
2023/04/04 13:55:43;;;;;;;;;;;;;;;12.50;100.00;98524.53;5052726;28;809;-60
2023/04/04 13:58:09;;;;;;;;;;;;;;;12.20;100.00;98529.44;5052601;28;846;-60
2023/04/04 14:00:37;;;;;;;;;;;;;;;11.95;100.00;98510.06;5052650;28;865;-60
2023/04/04 14:03:03;;;;;;;;;;;;;;;11.71;100.00;98506.81;5052582;28;877;-62
2023/04/04 14:05:30;;;;;;;;;;;;;;;11.75;100.00;98524.09;5052404;28;822;-60
2023/04/04 14:07:56;;;;;;;;;;;;;;;11.88;100.00;98519.38;5052307;28;1960;-61
2023/04/04 14:10:22;;;;;;;;;;;;;;;12.79;100.00;98532.66;5052199;28;1421;-60
2023/04/04 14:12:49;;;;;;;;;;;;;;;13.46;100.00;98520.41;5052538;28;837;-60
2023/04/04 14:15:21;;;;;;;;;;;;;;;13.66;100.00;98517.28;5052305;28;827;-60
2023/04/04 14:17:48;;;;;;;;;;;;;;;13.83;100.00;98522.63;5052353;28;818;-60
2023/04/04 14:20:14;;;;;;;;;;;;;;;13.76;100.00;98517.31;5052176;28;862;-60
2023/04/04 14:22:41;;;;;;;;;;;;;;;13.56;100.00;98520.47;5052280;28;858;-60
2023/04/04 14:25:07;;;;;;;;;;;;;;;13.03;100.00;98518.38;5052133;28;810;-60
2023/04/04 14:27:34;;;;;;;;;;;;;;;12.74;100.00;98513.84;5050400;28;1971;-60
2023/04/04 14:30:01;;;;;;;;;;;;;;;12.53;100.00;98507.00;5052040;28;920;-61
2023/04/04 14:32:27;;;;;;;;;;;;;;;12.25;100.00;98500.44;5052048;28;795;-61
2023/04/04 14:34:54;;;;;;;;;;;;;;;11.90;100.00;98516.16;5051890;28;811;-60
2023/04/04 14:37:21;;;;;;;;;;;;;;;11.63;100.00;98525.66;5052092;28;835;-60
2023/04/04 14:39:47;;;;;;;;;;;;;;;11.76;100.00;98522.91;5051910;28;866;-60
2023/04/04 14:42:14;;;;;;;;;;;;;;;12.12;100.00;98521.78;5050565;28;818;-59
2023/04/04 14:44:41;;;;;;;;;;;;;;;12.10;100.00;98513.97;5052197;28;802;-60